Time;durP1;ratioP1;P1;durP2;ratioP2;P2;SDS_P1;SDS_P2;PMS_P1;PMS_P2;Temp;Humidity;BMP_temperature;BMP_pressure;BME280_temperature;BME280_humidity;BME280_pressure;Samples;Min_cycle;Max_cycle;Signal;HPM_P1;HPM_P2
2022/11/20 00:01:32;;;;;;;3.53;2.10;;;11.00;84.10;11.00;95780.00;;;;5022379;28;20267;-86
2022/11/20 00:04:00;;;;;;;1.90;1.80;;;11.00;84.00;11.00;95773.00;;;;5027984;28;20276;-86
2022/11/20 00:06:29;;;;;;;2.73;2.10;;;11.00;84.00;11.00;95784.00;;;;5016956;28;20253;-86
2022/11/20 00:08:59;;;;;;;5.23;1.63;;;11.00;83.90;11.00;95785.00;;;;5027222;28;20202;-85
2022/11/20 00:11:29;;;;;;;2.37;1.77;;;11.00;83.90;11.10;95786.00;;;;5034238;28;20187;-86
2022/11/20 00:13:59;;;;;;;1.93;1.60;;;11.00;84.00;11.10;95782.00;;;;5013839;28;20285;-86
2022/11/20 00:16:30;;;;;;;1.70;1.50;;;11.00;84.10;11.10;95787.00;;;;5030774;28;20757;-85
2022/11/20 00:18:57;;;;;;;4.23;1.53;;;11.00;83.90;11.00;95791.00;;;;5047994;28;20289;-85
2022/11/20 00:21:27;;;;;;;1.50;1.40;;;11.00;83.70;11.00;95799.00;;;;5023838;28;20233;-86
2022/11/20 00:23:58;;;;;;;1.93;1.50;;;11.00;83.60;11.00;95789.00;;;;5029428;28;20797;-85
2022/11/20 00:26:27;;;;;;;1.37;1.27;;;11.00;83.60;11.00;95796.00;;;;5019336;28;20313;-85
2022/11/20 00:28:57;;;;;;;1.47;1.37;;;11.00;83.70;11.00;95790.00;;;;5023613;28;20194;-85
2022/11/20 00:31:24;;;;;;;1.50;1.33;;;11.00;83.60;11.00;95798.00;;;;5044554;28;20228;-86
2022/11/20 00:33:53;;;;;;;1.27;1.20;;;11.00;83.60;11.00;95793.00;;;;5027984;28;20290;-86
2022/11/20 00:36:23;;;;;;;1.50;1.40;;;11.00;83.70;11.00;95795.00;;;;5031220;28;20248;-86
2022/11/20 00:38:54;;;;;;;1.43;1.33;;;11.00;83.90;11.00;95799.00;;;;5025320;28;20728;-86
2022/11/20 00:41:23;;;;;;;2.20;1.27;;;11.00;83.80;11.00;95801.00;;;;5016724;28;20718;-86
2022/11/20 00:43:52;;;;;;;1.67;1.30;;;11.00;83.70;11.00;95794.00;;;;5024037;28;20284;-86
2022/11/20 00:46:22;;;;;;;1.80;1.70;;;11.00;83.90;11.00;95802.00;;;;5031428;28;20222;-85
2022/11/20 00:48:50;;;;;;;1.80;1.60;;;11.00;83.90;11.00;95796.00;;;;5017252;28;20226;-85
2022/11/20 00:51:20;;;;;;;1.93;1.70;;;11.00;83.70;11.00;95787.00;;;;5034804;28;20962;-85
2022/11/20 00:53:47;;;;;;;1.77;1.33;;;11.00;83.50;11.00;95794.00;;;;5035973;28;20274;-85
2022/11/20 00:56:18;;;;;;;2.00;1.80;;;11.00;83.50;10.90;95796.00;;;;5053058;28;20311;-86
2022/11/20 00:58:49;;;;;;;4.13;1.70;;;11.00;83.50;11.00;95804.00;;;;5034379;28;20709;-86
2022/11/20 01:01:19;;;;;;;2.77;1.80;;;11.00;83.60;11.00;95801.00;;;;5033367;28;20218;-86
2022/11/20 01:03:49;;;;;;;2.20;1.80;;;11.00;83.80;10.90;95804.00;;;;5033322;28;20280;-85
2022/11/20 01:06:19;;;;;;;2.00;1.90;;;11.00;83.80;11.00;95807.00;;;;5014312;28;20288;-85
2022/11/20 01:08:47;;;;;;;2.27;1.90;;;11.00;83.90;11.00;95809.00;;;;5014850;28;20206;-85
2022/11/20 01:11:18;;;;;;;2.07;1.97;;;11.00;84.00;11.00;95811.00;;;;5024364;28;20232;-85
2022/11/20 01:13:47;;;;;;;2.20;2.10;;;11.00;84.00;11.00;95815.00;;;;5024989;28;20300;-85
2022/11/20 01:16:18;;;;;;;2.20;2.00;;;11.00;83.90;11.00;95818.00;;;;5025387;28;20244;-86
2022/11/20 01:18:49;;;;;;;3.90;2.30;;;11.00;83.80;11.00;95823.00;;;;5034940;28;20289;-85
2022/11/20 01:21:18;;;;;;;9.30;2.40;;;11.00;83.70;11.00;95827.00;;;;5047259;28;20808;-85
2022/11/20 01:23:47;;;;;;;2.60;2.40;;;11.00;83.90;11.00;95819.00;;;;5020834;28;20619;-85
2022/11/20 01:26:16;;;;;;;3.07;2.13;;;11.00;84.10;11.00;95827.00;;;;5031743;28;20643;-85
2022/11/20 01:28:45;;;;;;;13.63;3.23;;;11.00;84.00;11.00;95830.00;;;;5027148;28;20217;-85
2022/11/20 01:31:15;;;;;;;3.40;2.30;;;11.00;84.10;11.10;95831.00;;;;5027446;28;20284;-85
2022/11/20 01:33:44;;;;;;;2.10;2.00;;;11.10;84.10;11.10;95830.00;;;;5021992;28;20388;-84
2022/11/20 01:36:13;;;;;;;3.70;2.63;;;11.10;84.10;11.10;95825.00;;;;5025566;28;20267;-85
2022/11/20 01:38:40;;;;;;;2.10;1.90;;;11.10;83.90;11.10;95824.00;;;;5041011;28;20291;-84
2022/11/20 01:41:10;;;;;;;3.43;2.03;;;11.10;84.00;11.10;95832.00;;;;5028218;28;20721;-85
2022/11/20 01:43:37;;;;;;;2.27;2.13;;;11.10;84.00;11.10;95838.00;;;;5032953;28;20292;-85
2022/11/20 01:46:16;;;;;;;2.70;2.07;;;11.10;83.90;11.10;95838.00;;;;5023955;28;20253;-85
2022/11/20 01:48:52;;;;;;;3.67;2.13;;;11.10;83.80;11.10;95834.00;;;;5031974;28;20224;-85
2022/11/20 01:51:29;;;;;;;2.20;2.00;;;11.10;83.70;11.10;95832.00;;;;5040217;28;20232;-85
2022/11/20 01:54:01;;;;;;;3.50;2.23;;;11.10;83.70;11.20;95833.00;;;;5019445;28;20204;-86
2022/11/20 01:56:32;;;;;;;3.47;2.07;;;11.10;83.80;11.20;95836.00;;;;5039989;28;20217;-86
2022/11/20 01:59:05;;;;;;;2.87;2.10;;;11.20;83.80;11.20;95833.00;;;;5017571;28;20655;-86
2022/11/20 02:01:34;;;;;;;3.53;2.20;;;11.20;83.80;11.20;95831.00;;;;5020164;28;20225;-86
2022/11/20 02:04:02;;;;;;;4.83;2.30;;;11.20;83.70;11.20;95832.00;;;;5031207;28;20251;-86
2022/11/20 02:06:33;;;;;;;2.00;1.90;;;11.20;83.70;11.20;95831.00;;;;5041200;28;20658;-85
2022/11/20 02:09:00;;;;;;;3.90;1.97;;;11.20;83.60;11.20;95835.00;;;;5039251;28;20638;-85
2022/11/20 02:11:31;;;;;;;3.53;1.87;;;11.20;83.60;11.20;95830.00;;;;5036317;28;20966;-85
2022/11/20 02:13:58;;;;;;;2.43;1.87;;;11.20;83.60;11.20;95836.00;;;;5028847;28;20259;-85
2022/11/20 02:16:31;;;;;;;3.80;2.00;;;11.20;83.60;11.20;95830.00;;;;5036006;28;20213;-85
2022/11/20 02:19:03;;;;;;;3.70;2.20;;;11.20;83.40;11.20;95837.00;;;;5036071;28;20285;-86
2022/11/20 02:21:40;;;;;;;2.63;1.87;;;11.20;83.50;11.20;95837.00;;;;5036395;28;20193;-85
2022/11/20 02:24:15;;;;;;;2.70;1.60;;;11.20;83.30;11.20;95838.00;;;;5036627;28;20276;-86
2022/11/20 02:26:51;;;;;;;3.10;1.83;;;11.20;83.10;11.20;95836.00;;;;5023826;28;20255;-83
2022/11/20 02:29:26;;;;;;;1.90;1.80;;;11.20;83.00;11.20;95838.00;;;;5017170;28;20228;-83
2022/11/20 02:31:57;;;;;;;3.37;1.87;;;11.20;83.00;11.20;95837.00;;;;5020116;28;20291;-83
2022/11/20 02:34:24;;;;;;;4.17;1.73;;;11.20;82.90;11.20;95839.00;;;;5036933;28;20221;-83
2022/11/20 02:36:54;;;;;;;3.30;2.17;;;11.20;82.90;11.10;95832.00;;;;5035787;28;20629;-83
2022/11/20 02:39:27;;;;;;;2.00;1.90;;;11.20;82.80;11.10;95835.00;;;;5035688;28;20247;-83
2022/11/20 02:41:57;;;;;;;2.10;1.90;;;11.20;82.90;11.10;95835.00;;;;5035837;28;20185;-84
2022/11/20 02:44:25;;;;;;;2.03;1.83;;;11.20;82.80;11.10;95827.00;;;;5036332;28;20209;-83
2022/11/20 02:46:52;;;;;;;2.13;2.03;;;11.10;83.30;11.10;95823.00;;;;5036000;28;20225;-83
2022/11/20 02:49:19;;;;;;;2.40;2.20;;;11.10;82.50;11.10;95831.00;;;;5036665;28;20292;-83
2022/11/20 02:51:46;;;;;;;2.20;1.90;;;11.10;82.50;11.00;95822.00;;;;5048048;28;20219;-83
2022/11/20 02:54:13;;;;;;;1.93;1.80;;;11.10;82.60;11.00;95826.00;;;;5056608;28;20201;-83
2022/11/20 02:56:42;;;;;;;2.33;2.10;;;11.10;82.50;11.00;95825.00;;;;5037391;28;20300;-83
2022/11/20 02:59:10;;;;;;;1.83;1.73;;;11.10;82.50;11.00;95821.00;;;;5036661;28;20611;-83
2022/11/20 03:01:37;;;;;;;2.20;2.00;;;11.00;82.30;10.90;95818.00;;;;5036181;28;20229;-84
2022/11/20 03:04:05;;;;;;;2.13;1.80;;;11.00;82.30;10.90;95829.00;;;;5036192;28;20644;-83
2022/11/20 03:06:33;;;;;;;2.13;1.93;;;11.00;82.30;10.90;95817.00;;;;5036066;28;20244;-83
2022/11/20 03:09:00;;;;;;;2.03;1.93;;;11.00;82.30;10.90;95825.00;;;;5036289;28;20723;-83
2022/11/20 03:11:27;;;;;;;2.30;2.10;;;11.00;82.30;10.90;95815.00;;;;5036101;28;20207;-83
2022/11/20 03:13:55;;;;;;;1.97;1.83;;;11.00;82.30;10.80;95819.00;;;;5035378;28;20280;-83
2022/11/20 03:16:24;;;;;;;2.00;1.90;;;10.90;82.20;10.80;95823.00;;;;5035246;28;20307;-84
2022/11/20 03:18:53;;;;;;;2.20;2.00;;;10.90;82.30;10.80;95826.00;;;;5035566;28;20280;-83
2022/11/20 03:21:20;;;;;;;2.30;2.10;;;10.90;82.40;10.80;95823.00;;;;5035753;28;20289;-83
2022/11/20 03:23:48;;;;;;;2.47;2.27;;;10.90;82.40;10.80;95827.00;;;;5035482;28;20776;-83
2022/11/20 03:26:19;;;;;;;2.00;1.90;;;10.90;82.50;10.80;95820.00;;;;5035277;28;20268;-82
2022/11/20 03:28:49;;;;;;;4.10;2.10;;;10.90;82.60;10.80;95821.00;;;;5035288;28;20233;-84
2022/11/20 03:31:21;;;;;;;2.23;2.03;;;10.90;82.40;10.80;95831.00;;;;5035191;28;20646;-84
2022/11/20 03:33:49;;;;;;;2.43;2.23;;;10.90;82.20;10.80;95826.00;;;;5035119;28;20217;-84
2022/11/20 03:36:19;;;;;;;2.37;1.97;;;10.90;82.20;10.80;95827.00;;;;5034944;28;20311;-84
2022/11/20 03:38:47;;;;;;;2.30;2.10;;;10.90;82.20;10.80;95819.00;;;;5035104;28;20697;-84
2022/11/20 03:41:18;;;;;;;2.50;2.30;;;10.90;82.30;10.80;95824.00;;;;5034599;28;20229;-84
2022/11/20 03:43:50;;;;;;;2.00;1.90;;;10.90;82.30;10.80;95822.00;;;;5035034;28;20232;-84
2022/11/20 03:46:18;;;;;;;2.30;2.10;;;10.90;82.10;10.70;95822.00;;;;5034785;28;20278;-84
2022/11/20 03:48:46;;;;;;;2.33;1.97;;;10.80;82.00;10.70;95826.00;;;;5034603;28;20229;-83
2022/11/20 03:51:16;;;;;;;8.00;2.43;;;10.80;81.90;10.70;95822.00;;;;5035431;28;20251;-83
2022/11/20 03:53:47;;;;;;;4.87;2.10;;;10.80;82.10;10.70;95829.00;;;;5035436;28;20236;-83
2022/11/20 03:56:17;;;;;;;3.90;2.03;;;10.80;82.20;10.70;95823.00;;;;5034802;28;20217;-83
2022/11/20 03:58:45;;;;;;;2.33;2.13;;;10.80;82.30;10.70;95825.00;;;;5035008;28;20224;-84
2022/11/20 04:01:16;;;;;;;2.20;2.00;;;10.80;82.40;10.70;95826.00;;;;5034788;28;20201;-84
2022/11/20 04:03:46;;;;;;;2.30;2.10;;;10.80;82.40;10.70;95826.00;;;;5034720;28;20181;-84
2022/11/20 04:06:16;;;;;;;2.20;2.00;;;10.80;82.30;10.70;95824.00;;;;5034382;28;20221;-84
2022/11/20 04:08:43;;;;;;;2.07;1.97;;;10.80;82.30;10.70;95826.00;;;;5034538;28;20252;-84
2022/11/20 04:11:13;;;;;;;4.07;2.37;;;10.80;82.30;10.70;95831.00;;;;5040389;28;20224;-84
2022/11/20 04:13:41;;;;;;;2.17;1.97;;;10.80;82.30;10.70;95834.00;;;;5053961;28;20236;-83
2022/11/20 04:16:10;;;;;;;2.47;2.27;;;10.80;82.30;10.70;95826.00;;;;5053910;28;20258;-85
2022/11/20 04:18:38;;;;;;;2.17;2.07;;;10.80;82.30;10.70;95831.00;;;;5054137;28;20228;-83
2022/11/20 04:21:07;;;;;;;2.20;2.00;;;10.80;82.20;10.70;95828.00;;;;5054230;28;20266;-84
2022/11/20 04:23:35;;;;;;;2.23;2.00;;;10.80;82.00;10.70;95826.00;;;;5053956;28;20228;-83
2022/11/20 04:26:04;;;;;;;2.20;2.00;;;10.80;81.90;10.70;95827.00;;;;5051689;28;20248;-83
2022/11/20 04:28:31;;;;;;;2.20;1.93;;;10.80;82.00;10.70;95829.00;;;;5033592;28;20263;-84
2022/11/20 04:31:07;;;;;;;4.63;2.47;;;10.80;82.00;10.70;95822.00;;;;5034110;28;20236;-84
2022/11/20 04:33:36;;;;;;;1.90;1.80;;;10.80;82.00;10.70;95817.00;;;;5034028;28;20746;-83
2022/11/20 04:36:07;;;;;;;2.10;1.90;;;10.80;81.60;10.70;95821.00;;;;5033869;28;20249;-84
2022/11/20 04:38:35;;;;;;;4.13;2.17;;;10.80;81.50;10.70;95813.00;;;;5033627;28;20239;-83
2022/11/20 04:41:07;;;;;;;4.73;2.10;;;10.80;81.70;10.70;95818.00;;;;5033863;28;20643;-84
2022/11/20 04:43:35;;;;;;;2.10;2.00;;;10.80;81.90;10.70;95818.00;;;;5033879;28;20189;-84
2022/11/20 04:46:02;;;;;;;1.90;1.80;;;10.80;82.10;10.70;95821.00;;;;5033895;28;20240;-84
2022/11/20 04:48:30;;;;;;;2.37;2.23;;;10.80;81.80;10.70;95830.00;;;;5050912;28;20684;-84
2022/11/20 04:50:58;;;;;;;2.33;2.13;;;10.80;81.50;10.70;95825.00;;;;5053490;28;20291;-84
2022/11/20 04:53:27;;;;;;;2.10;1.90;;;10.80;81.40;10.70;95822.00;;;;5036725;28;20280;-83
2022/11/20 04:56:01;;;;;;;2.47;2.23;;;10.80;81.40;10.70;95832.00;;;;5033623;28;20248;-83
2022/11/20 04:58:28;;;;;;;1.97;1.83;;;10.80;81.30;10.70;95824.00;;;;5033515;28;20193;-84
2022/11/20 05:01:03;;;;;;;4.00;1.83;;;10.80;81.40;10.70;95832.00;;;;5033408;28;20201;-84
2022/11/20 05:03:31;;;;;;;1.93;1.83;;;10.80;81.30;10.70;95831.00;;;;5034081;28;20182;-84
2022/11/20 05:06:01;;;;;;;4.30;2.17;;;10.80;81.40;10.70;95819.00;;;;5053684;28;20335;-84
2022/11/20 05:08:30;;;;;;;1.70;1.60;;;10.80;81.40;10.70;95831.00;;;;5053903;28;20654;-83
2022/11/20 05:11:02;;;;;;;2.37;1.70;;;10.80;81.40;10.70;95829.00;;;;5023606;28;20253;-83
2022/11/20 05:13:29;;;;;;;2.53;2.00;;;10.80;81.40;10.70;95837.00;;;;5032133;28;20289;-83
2022/11/20 05:16:02;;;;;;;1.57;1.47;;;10.80;81.40;10.70;95829.00;;;;5033823;28;20760;-84
2022/11/20 05:18:29;;;;;;;1.90;1.80;;;10.80;81.20;10.70;95835.00;;;;5032619;28;20661;-84
2022/11/20 05:20:57;;;;;;;2.00;1.70;;;10.70;81.10;10.70;95833.00;;;;5033559;28;20205;-83
2022/11/20 05:23:25;;;;;;;9.10;2.47;;;10.80;81.30;10.70;95843.00;;;;5033622;28;20267;-83
2022/11/20 05:25:55;;;;;;;2.17;1.67;;;10.80;81.20;10.70;95836.00;;;;5033505;28;20316;-83
2022/11/20 05:28:24;;;;;;;1.60;1.50;;;10.80;81.30;10.70;95846.00;;;;5033771;28;20305;-83
2022/11/20 05:30:51;;;;;;;1.50;1.40;;;10.80;81.40;10.70;95840.00;;;;5033526;28;20205;-83
2022/11/20 05:33:22;;;;;;;3.63;1.87;;;10.70;81.00;10.70;95834.00;;;;5032877;28;20201;-83
2022/11/20 05:35:49;;;;;;;2.07;1.93;;;10.70;80.80;10.70;95832.00;;;;5032725;28;20345;-83
2022/11/20 05:38:16;;;;;;;1.70;1.60;;;10.70;80.90;10.70;95829.00;;;;5034291;28;20231;-83
2022/11/20 05:40:44;;;;;;;4.53;2.00;;;10.70;80.90;10.70;95829.00;;;;5029193;28;20239;-84
2022/11/20 05:43:12;;;;;;;2.70;1.60;;;10.80;81.10;10.70;95826.00;;;;5032753;28;20201;-84
2022/11/20 05:45:39;;;;;;;2.67;1.97;;;10.80;81.30;10.70;95830.00;;;;5032588;28;20320;-84
2022/11/20 05:48:07;;;;;;;2.10;1.90;;;10.70;81.40;10.70;95830.00;;;;5021812;28;20245;-84
2022/11/20 05:50:34;;;;;;;1.60;1.50;;;10.80;81.30;10.70;95833.00;;;;5032761;28;20528;-84
2022/11/20 05:53:02;;;;;;;1.80;1.70;;;10.70;81.00;10.70;95830.00;;;;5028668;28;20613;-84
2022/11/20 05:55:29;;;;;;;5.60;1.70;;;10.80;81.10;10.70;95834.00;;;;5021652;28;20230;-84
2022/11/20 05:57:56;;;;;;;2.40;1.67;;;10.80;81.30;10.70;95843.00;;;;5015636;28;20240;-84
2022/11/20 06:00:25;;;;;;;4.60;2.00;;;10.80;81.20;10.70;95838.00;;;;5032509;28;20642;-84
2022/11/20 06:02:52;;;;;;;2.03;1.93;;;10.80;81.10;10.70;95844.00;;;;5032527;28;20228;-84
2022/11/20 06:05:19;;;;;;;3.00;2.30;;;10.80;80.90;10.70;95849.00;;;;5032024;28;20256;-84
2022/11/20 06:07:46;;;;;;;1.97;1.70;;;10.80;80.80;10.70;95847.00;;;;5032386;28;20252;-84
2022/11/20 06:10:13;;;;;;;2.20;2.00;;;10.70;80.80;10.70;95847.00;;;;5024477;28;20209;-84
2022/11/20 06:12:41;;;;;;;12.03;2.10;;;10.80;80.80;10.70;95851.00;;;;5025017;28;20284;-83
2022/11/20 06:15:09;;;;;;;2.60;2.00;;;10.70;80.70;10.70;95849.00;;;;5032326;28;20694;-84
2022/11/20 06:17:38;;;;;;;2.00;1.80;;;10.80;80.80;10.70;95861.00;;;;5032230;28;20284;-84
2022/11/20 06:20:07;;;;;;;2.07;1.97;;;10.70;80.70;10.60;95858.00;;;;5028472;28;20211;-84
2022/11/20 06:22:34;;;;;;;1.80;1.70;;;10.70;80.80;10.60;95867.00;;;;5028135;28;20294;-84
2022/11/20 06:25:01;;;;;;;1.60;1.50;;;10.70;80.70;10.60;95863.00;;;;5023687;28;20295;-83
2022/11/20 06:27:28;;;;;;;4.70;1.90;;;10.70;80.50;10.60;95867.00;;;;5028320;28;20297;-84
2022/11/20 06:29:56;;;;;;;2.10;1.87;;;10.70;80.60;10.60;95869.00;;;;5023144;28;20224;-84
2022/11/20 06:32:23;;;;;;;4.17;2.00;;;10.70;80.60;10.60;95870.00;;;;5034449;28;20225;-85
2022/11/20 06:34:52;;;;;;;10.50;2.50;;;10.70;80.60;10.60;95866.00;;;;5027250;28;20308;-84
2022/11/20 06:37:19;;;;;;;2.27;2.00;;;10.70;80.70;10.60;95872.00;;;;5031816;28;20256;-84
2022/11/20 06:39:46;;;;;;;4.00;2.10;;;10.60;80.70;10.60;95869.00;;;;5028412;28;20297;-85
2022/11/20 06:42:13;;;;;;;2.43;1.33;;;10.60;80.90;10.60;95876.00;;;;5027778;28;20677;-86
2022/11/20 06:44:41;;;;;;;9.30;2.80;;;10.60;81.10;10.60;95874.00;;;;5024706;28;20221;-85
2022/11/20 06:47:08;;;;;;;8.20;2.90;;;10.60;81.20;10.70;95879.00;;;;5018735;28;20232;-86
2022/11/20 06:49:36;;;;;;;6.10;2.60;;;10.60;81.20;10.70;95883.00;;;;5024147;28;20303;-87
2022/11/20 06:52:05;;;;;;;6.47;2.27;;;10.70;81.30;10.70;95881.00;;;;5026802;28;20682;-87
2022/11/20 06:54:33;;;;;;;3.10;1.90;;;10.70;81.40;10.80;95882.00;;;;5023509;28;20284;-86
2022/11/20 06:57:00;;;;;;;2.60;2.00;;;10.70;81.30;10.80;95888.00;;;;5023882;28;20210;-86
2022/11/20 06:59:27;;;;;;;3.23;2.17;;;10.70;81.20;10.80;95898.00;;;;5029359;28;20198;-87
2022/11/20 07:01:54;;;;;;;2.33;1.97;;;10.70;80.90;10.80;95891.00;;;;5035966;28;20615;-87
2022/11/20 07:04:22;;;;;;;3.03;1.87;;;10.70;80.90;10.80;95887.00;;;;5027898;28;20229;-87
2022/11/20 07:06:49;;;;;;;2.20;1.97;;;10.70;80.80;10.80;95892.00;;;;5021127;28;20288;-87
2022/11/20 07:09:18;;;;;;;5.33;2.37;;;10.70;80.50;10.80;95895.00;;;;5029954;28;20255;-87
2022/11/20 07:11:46;;;;;;;15.43;2.40;;;10.70;80.40;10.80;95895.00;;;;5025905;28;20642;-87
2022/11/20 07:14:13;;;;;;;2.20;2.00;;;10.70;80.60;10.80;95893.00;;;;5024344;28;20197;-87
2022/11/20 07:16:40;;;;;;;2.43;2.23;;;10.70;80.80;10.80;95895.00;;;;5034019;28;20754;-88
2022/11/20 07:19:08;;;;;;;3.80;2.33;;;10.70;80.80;10.80;95900.00;;;;5029824;28;20205;-87
2022/11/20 07:21:35;;;;;;;2.23;2.03;;;10.70;80.80;10.90;95902.00;;;;5029939;28;20240;-87
2022/11/20 07:24:02;;;;;;;6.93;2.30;;;10.80;81.00;10.90;95902.00;;;;5041128;28;20209;-88
2022/11/20 07:26:31;;;;;;;6.93;2.70;;;10.80;81.10;10.90;95901.00;;;;5024061;28;20241;-87
2022/11/20 07:28:58;;;;;;;4.90;2.47;;;10.70;80.90;10.90;95897.00;;;;5029902;28;20248;-84
2022/11/20 07:31:25;;;;;;;3.97;2.50;;;10.80;81.00;10.90;95896.00;;;;5025014;28;20252;-86
2022/11/20 07:33:52;;;;;;;2.47;2.27;;;10.80;81.10;10.90;95907.00;;;;5029867;28;20285;-87
2022/11/20 07:36:20;;;;;;;8.60;2.70;;;10.80;81.20;10.90;95899.00;;;;5031637;28;20252;-87
2022/11/20 07:38:47;;;;;;;2.67;2.43;;;10.80;81.10;10.90;95902.00;;;;5034661;28;20193;-86
2022/11/20 07:41:14;;;;;;;3.40;3.10;;;10.80;81.10;10.90;95895.00;;;;5034704;28;20205;-87
2022/11/20 07:43:43;;;;;;;2.77;2.57;;;10.80;81.00;11.00;95905.00;;;;5034377;28;20220;-87
2022/11/20 07:46:10;;;;;;;5.53;3.77;;;10.80;81.10;11.00;95900.00;;;;5034033;28;20248;-88
2022/11/20 07:48:37;;;;;;;12.83;4.37;;;10.80;81.20;11.00;95906.00;;;;5034406;28;20271;-87
2022/11/20 07:51:05;;;;;;;5.40;3.90;;;10.90;81.40;11.00;95906.00;;;;5034316;28;20248;-87
2022/11/20 07:53:32;;;;;;;11.33;10.13;;;10.90;81.30;11.00;95914.00;;;;5034845;28;20193;-88
2022/11/20 07:56:01;;;;;;;4.87;4.47;;;10.90;81.00;11.00;95913.00;;;;5026382;28;20229;-88
2022/11/20 07:58:32;;;;;;;13.47;11.43;;;10.90;80.70;11.00;95906.00;;;;5034421;28;20197;-88
2022/11/20 08:01:04;;;;;;;7.97;7.00;;;10.90;80.50;11.00;95896.00;;;;5033097;28;20714;-87
2022/11/20 08:03:32;;;;;;;4.10;3.90;;;11.00;80.40;11.00;95901.00;;;;5033465;28;20197;-87
2022/11/20 08:06:01;;;;;;;3.13;2.90;;;10.90;80.40;11.00;95894.00;;;;5034009;28;20299;-87
2022/11/20 08:08:29;;;;;;;2.70;2.47;;;11.00;80.60;11.00;95903.00;;;;5034205;28;20305;-88
2022/11/20 08:14:11;;;;;;;2.60;2.40;;;11.00;80.50;11.00;95906.00;;;;5033664;28;20293;-86
2022/11/20 08:16:32;;;;;;;2.93;2.73;;;11.00;80.10;11.10;95909.00;;;;5033693;28;20307;-88
2022/11/20 08:18:59;;;;;;;3.53;3.23;;;11.00;80.50;11.10;95898.00;;;;5024323;28;20297;-87
2022/11/20 08:21:26;;;;;;;2.80;2.50;;;11.00;80.60;11.10;95897.00;;;;5017613;28;20694;-87
2022/11/20 08:23:54;;;;;;;8.40;3.60;;;11.10;80.60;11.20;95906.00;;;;5035376;28;20283;-87
2022/11/20 08:26:22;;;;;;;2.43;2.23;;;11.10;80.50;11.10;95900.00;;;;5053816;28;20304;-87
2022/11/20 08:28:49;;;;;;;2.70;2.50;;;11.10;80.30;11.10;95908.00;;;;5053757;28;20614;-86
2022/11/20 08:31:17;;;;;;;2.57;2.37;;;11.10;79.80;11.20;95906.00;;;;5033959;28;20194;-87
2022/11/20 08:33:45;;;;;;;3.87;2.10;;;11.10;79.70;11.20;95904.00;;;;5033591;28;20304;-87
2022/11/20 08:36:12;;;;;;;3.00;2.10;;;11.10;79.90;11.20;95902.00;;;;5033710;28;20295;-87
2022/11/20 08:38:40;;;;;;;2.23;2.10;;;11.10;80.10;11.30;95905.00;;;;5034069;28;20263;-87
2022/11/20 08:41:26;;;;;;;2.43;2.10;;;11.20;79.90;11.30;95911.00;;;;5033689;28;20240;-87
2022/11/20 08:43:56;;;;;;;2.90;2.30;;;11.20;80.10;11.40;95912.00;;;;5031931;28;20197;-86
2022/11/20 08:46:25;;;;;;;2.07;1.87;;;11.20;79.90;11.40;95905.00;;;;5027049;28;20300;-87
2022/11/20 08:48:54;;;;;;;5.13;2.03;;;11.30;79.90;11.40;95899.00;;;;5028144;28;20712;-86
2022/11/20 08:51:21;;;;;;;2.93;2.10;;;11.30;79.50;11.40;95910.00;;;;5035610;28;20201;-86
2022/11/20 08:53:49;;;;;;;2.30;2.10;;;11.30;79.50;11.40;95902.00;;;;5031043;28;20228;-86
2022/11/20 08:56:17;;;;;;;2.33;1.90;;;11.30;79.10;11.40;95911.00;;;;5031943;28;20247;-87
2022/11/20 08:58:45;;;;;;;2.90;1.80;;;11.30;78.80;11.40;95913.00;;;;5032217;28;20216;-86
2022/11/20 09:01:12;;;;;;;1.50;1.40;;;11.30;79.40;11.40;95914.00;;;;5031731;28;20267;-87
2022/11/20 09:03:39;;;;;;;2.40;2.20;;;11.40;78.50;11.40;95907.00;;;;5032700;28;20244;-87
2022/11/20 09:06:08;;;;;;;2.30;2.10;;;11.40;78.40;11.40;95894.00;;;;5031492;28;20761;-85
2022/11/20 09:08:37;;;;;;;4.40;2.37;;;11.40;78.50;11.50;95899.00;;;;5031579;28;20233;-85
2022/11/20 09:11:05;;;;;;;1.90;1.80;;;11.40;78.80;11.50;95908.00;;;;5031840;28;20207;-85
2022/11/20 09:13:35;;;;;;;2.43;2.23;;;11.40;78.60;11.50;95899.00;;;;5030817;28;20206;-85
2022/11/20 09:16:06;;;;;;;2.07;1.93;;;11.50;78.50;11.60;95903.00;;;;5032031;28;20225;-85
2022/11/20 09:18:35;;;;;;;2.20;2.00;;;11.50;78.10;11.60;95899.00;;;;5032345;28;20229;-86
2022/11/20 09:21:07;;;;;;;3.87;2.00;;;11.50;78.00;11.60;95906.00;;;;5032164;28;20636;-85
2022/11/20 09:23:37;;;;;;;2.13;1.90;;;11.50;78.10;11.60;95900.00;;;;5030984;28;20271;-85
2022/11/20 09:26:06;;;;;;;1.90;1.80;;;11.60;78.90;11.60;95907.00;;;;5031402;28;20241;-86
2022/11/20 09:28:34;;;;;;;2.00;1.90;;;11.60;78.00;11.70;95899.00;;;;5030544;28;20205;-86
2022/11/20 09:31:01;;;;;;;2.07;1.70;;;11.60;77.60;11.60;95888.00;;;;5031467;28;20276;-85
2022/11/20 09:33:28;;;;;;;1.90;1.80;;;11.60;77.90;11.70;95895.00;;;;5031295;28;20224;-85
2022/11/20 09:35:56;;;;;;;3.73;1.90;;;11.60;77.90;11.70;95892.00;;;;5029038;28;20769;-87
2022/11/20 09:38:24;;;;;;;2.00;1.90;;;11.70;77.70;11.70;95895.00;;;;5032220;28;20243;-86
2022/11/20 09:40:58;;;;;;;1.80;1.67;;;11.70;78.40;11.80;95887.00;;;;5030828;28;20266;-85
2022/11/20 09:43:39;;;;;;;3.23;1.80;;;11.70;77.90;11.80;95883.00;;;;5030933;28;20198;-84
2022/11/20 09:46:17;;;;;;;1.80;1.70;;;11.80;77.70;11.90;95893.00;;;;5031238;28;20630;-85
2022/11/20 09:49:03;;;;;;;3.37;2.57;;;11.80;77.40;11.90;95890.00;;;;5031022;28;20250;-85
2022/11/20 09:51:45;;;;;;;3.20;2.63;;;11.80;77.20;11.90;95897.00;;;;5031485;28;20626;-86
2022/11/20 09:54:19;;;;;;;2.27;2.07;;;11.90;77.00;12.00;95895.00;;;;5030865;28;20229;-87
2022/11/20 09:56:54;;;;;;;2.30;2.10;;;11.90;77.30;12.00;95896.00;;;;5030402;28;20224;-83
2022/11/20 09:59:36;;;;;;;2.17;1.97;;;11.90;77.20;12.00;95888.00;;;;5029937;28;20258;-86
2022/11/20 10:02:17;;;;;;;1.77;1.67;;;12.00;77.30;12.00;95885.00;;;;5030848;28;20617;-86
2022/11/20 10:04:52;;;;;;;3.47;1.33;;;12.00;77.30;12.10;95886.00;;;;5030845;28;20253;-86
2022/11/20 10:07:30;;;;;;;1.83;1.73;;;12.00;77.10;12.10;95877.00;;;;5030575;28;20247;-85
2022/11/20 10:10:00;;;;;;;2.30;2.03;;;12.00;76.90;12.10;95891.00;;;;5030936;28;20266;-85
2022/11/20 10:12:38;;;;;;;2.50;2.30;;;12.10;76.90;12.20;95888.00;;;;5030487;28;20256;-85
2022/11/20 10:15:27;;;;;;;2.87;2.67;;;12.10;76.50;12.20;95889.00;;;;5030310;28;20372;-85
2022/11/20 10:18:20;;;;;;;3.57;1.70;;;12.10;76.20;12.20;95881.00;;;;5030698;28;20817;-86
2022/11/20 10:21:00;;;;;;;1.60;1.50;;;12.20;76.00;12.20;95881.00;;;;5030812;28;20304;-85
2022/11/20 10:23:57;;;;;;;1.77;1.67;;;12.20;76.30;12.20;95888.00;;;;5030767;28;20205;-85
2022/11/20 10:26:43;;;;;;;3.33;1.67;;;12.20;75.40;12.20;95880.00;;;;5033887;28;20221;-87
2022/11/20 10:29:15;;;;;;;1.70;1.60;;;12.20;76.30;12.30;95886.00;;;;5035649;28;20219;-86
2022/11/20 10:31:46;;;;;;;1.50;1.40;;;12.30;76.50;12.30;95884.00;;;;5034107;28;20304;-86
2022/11/20 10:34:27;;;;;;;2.60;1.80;;;12.30;76.10;12.30;95876.00;;;;5033755;28;20240;-83
2022/11/20 10:37:03;;;;;;;1.50;1.40;;;12.30;75.60;12.30;95879.00;;;;5033788;28;20647;-85
2022/11/20 10:39:40;;;;;;;1.87;1.30;;;12.30;75.80;12.40;95888.00;;;;5034704;28;20276;-86
2022/11/20 10:42:18;;;;;;;1.53;1.43;;;12.30;75.50;12.40;95872.00;;;;5033318;28;20236;-85
2022/11/20 10:45:02;;;;;;;1.70;1.57;;;12.40;75.80;12.50;95876.00;;;;5034716;28;20253;-85
2022/11/20 10:47:32;;;;;;;1.50;1.40;;;12.40;76.00;12.50;95874.00;;;;5033534;28;20240;-86
2022/11/20 10:50:06;;;;;;;1.30;1.20;;;12.40;76.10;12.60;95878.00;;;;5033267;28;20221;-85
2022/11/20 10:52:45;;;;;;;1.40;1.30;;;12.50;75.70;12.60;95880.00;;;;5033481;28;20276;-85
2022/11/20 10:55:31;;;;;;;1.53;1.43;;;12.50;75.80;12.70;95865.00;;;;5033628;28;20315;-85
2022/11/20 10:58:11;;;;;;;1.50;1.40;;;12.60;75.20;12.70;95865.00;;;;5035699;28;20205;-89
2022/11/20 11:00:38;;;;;;;1.80;1.70;;;12.60;75.00;12.70;95861.00;;;;5036302;28;20236;-88
2022/11/20 11:03:24;;;;;;;1.60;1.50;;;12.60;76.10;12.80;95869.00;;;;5036107;28;20297;-88
2022/11/20 11:05:57;;;;;;;1.80;1.70;;;12.70;74.70;12.80;95864.00;;;;5035863;28;20245;-89
2022/11/20 11:08:33;;;;;;;3.87;1.47;;;12.70;75.20;12.80;95872.00;;;;5036401;28;20292;-89
2022/11/20 11:11:16;;;;;;;1.60;1.50;;;12.70;74.90;12.80;95867.00;;;;5035852;28;20292;-88